Terminal Aerodrome Forecast
Issued by NWS Pittsburgh, PA

Home | Current Version | Previous Version | Text Only | Print | Product List | Glossary On
Versions: 1 2 3 4 5 6 7 8 9 10 11 12 13 14 15 16 17 18 19 20 21 22 23 24 25 26 27 28 29 30
000
FTUS41 KPBZ 230200 AAA
TAFPIT
TAF AMD
KPIT 230257Z 2303/2406 19006KT P6SM OVC080
     FM231700 17006KT P6SM SCT080 BKN250
     FM240100 14010KT P6SM OVC080
     FM240400 15010KT 6SM -RA BKN025=

USA.gov is the U.S. government's official web portal to all federal, state and local government web resources and services.